Voronez, Russia
Current Conditions -  °F | °C
As of 3:00 PM on Wednesday 28 Jan 2015 (Local Time) from UUOO Reporting Station
Overcast Overcast  
Wind Chill: 19°   Ceiling: 900
Heat Index: 25°   Visibility: 6mi
Dew Point: 23°   Wind: 4mph
Humidity: 93%   Direction: 120°ESE
Pressure: 29.97"   Gusts: NA
Location:  51.71°N, 39.27°E
Report Text: UUOO 281200Z 12002MPS 9000 OVC009 M04/M05 Q1015 NOSIG RMK12850537
Loading
Personal Weather Stations






























Interactive Weather Map New forecast layout! Learn more

10-Day Weather Forecast

Advertisements
Track Severe Weather on mobile